Terminal Aerodrome Forecast
Issued by NWS Wilmington, OH

Current Version | Previous Version | Text Only | Print | Product List | Glossary Off
Versions: 1 2 3 4 5 6 7 8 9 10 11 12 13 14 15 16 17 18 19 20 21 22 23 24 25 26 27 28 29 30 31 32 33 34 35 36 37 38 39

000
FTUS41 KILN 021300 AAB
TAFCVG
TAF AMD
KCVG 021314Z 0213/0318 VRB04KT 5SM -SHRA BR OVC040
      TEMPO 0213/0214 2SM -SHRA BR OVC009
     FM021400 13005KT 5SM -SHRA BR BKN025 OVC040
     FM022000 10005KT P6SM VCSH BKN025 OVC040
      TEMPO 0220/0224 5SM -SHRA BR
     FM030000 07006KT P6SM VCSH SCT025 OVC050
     FM030300 03008KT P6SM VCSH SCT025 BKN050=

USA.gov is the U.S. government's official web portal to all federal, state and local government web resources and services.